sensor_id;sensor_type;location;lat;lon;timestamp;temperature;humidity
4604;DHT22;2314;48.272;11.562;2024-01-27T00:02:08;0.60;99.90
4604;DHT22;2314;48.272;11.562;2024-01-27T00:04:35;0.60;99.90
4604;DHT22;2314;48.272;11.562;2024-01-27T00:07:03;0.60;99.90
4604;DHT22;2314;48.272;11.562;2024-01-27T00:09:30;0.60;99.90
4604;DHT22;2314;48.272;11.562;2024-01-27T00:11:57;0.60;99.90
4604;DHT22;2314;48.272;11.562;2024-01-27T00:14:24;0.70;99.90
4604;DHT22;2314;48.272;11.562;2024-01-27T00:16:51;0.60;99.90
4604;DHT22;2314;48.272;11.562;2024-01-27T00:19:20;0.60;99.90
4604;DHT22;2314;48.272;11.562;2024-01-27T00:21:47;0.60;99.90
4604;DHT22;2314;48.272;11.562;2024-01-27T00:24:14;0.60;99.90
4604;DHT22;2314;48.272;11.562;2024-01-27T00:26:42;0.60;99.90
4604;DHT22;2314;48.272;11.562;2024-01-27T00:29:10;0.60;99.90
4604;DHT22;2314;48.272;11.562;2024-01-27T00:31:37;0.70;99.90
4604;DHT22;2314;48.272;11.562;2024-01-27T00:34:04;0.70;99.90
4604;DHT22;2314;48.272;11.562;2024-01-27T00:36:32;0.60;99.90
4604;DHT22;2314;48.272;11.562;2024-01-27T00:39:02;0.60;99.90
4604;DHT22;2314;48.272;11.562;2024-01-27T00:41:30;0.60;99.90
4604;DHT22;2314;48.272;11.562;2024-01-27T00:43:57;0.60;99.90
4604;DHT22;2314;48.272;11.562;2024-01-27T00:46:24;0.60;99.90
4604;DHT22;2314;48.272;11.562;2024-01-27T00:48:51;0.60;99.90
4604;DHT22;2314;48.272;11.562;2024-01-27T00:51:18;0.50;99.90
4604;DHT22;2314;48.272;11.562;2024-01-27T00:53:47;0.50;99.90
4604;DHT22;2314;48.272;11.562;2024-01-27T00:56:14;0.50;99.90
4604;DHT22;2314;48.272;11.562;2024-01-27T00:58:41;0.50;99.90
4604;DHT22;2314;48.272;11.562;2024-01-27T01:01:10;0.50;99.90
4604;DHT22;2314;48.272;11.562;2024-01-27T01:03:37;0.50;99.90
4604;DHT22;2314;48.272;11.562;2024-01-27T01:06:04;0.60;99.90
4604;DHT22;2314;48.272;11.562;2024-01-27T01:08:31;0.60;99.90
4604;DHT22;2314;48.272;11.562;2024-01-27T01:11:00;0.70;99.90
4604;DHT22;2314;48.272;11.562;2024-01-27T01:13:27;0.80;99.90
4604;DHT22;2314;48.272;11.562;2024-01-27T01:15:54;0.90;99.90
4604;DHT22;2314;48.272;11.562;2024-01-27T01:18:21;0.90;99.90
4604;DHT22;2314;48.272;11.562;2024-01-27T01:20:48;1.00;99.90
4604;DHT22;2314;48.272;11.562;2024-01-27T01:23:15;0.90;99.90
4604;DHT22;2314;48.272;11.562;2024-01-27T01:25:42;0.90;99.90
4604;DHT22;2314;48.272;11.562;2024-01-27T01:28:11;0.80;99.90
4604;DHT22;2314;48.272;11.562;2024-01-27T01:30:38;0.80;99.90
4604;DHT22;2314;48.272;11.562;2024-01-27T01:33:05;0.80;99.90
4604;DHT22;2314;48.272;11.562;2024-01-27T01:35:33;0.70;99.90
4604;DHT22;2314;48.272;11.562;2024-01-27T01:37:59;0.60;99.90
4604;DHT22;2314;48.272;11.562;2024-01-27T01:40:26;0.60;99.90
4604;DHT22;2314;48.272;11.562;2024-01-27T01:42:53;0.50;99.90
4604;DHT22;2314;48.272;11.562;2024-01-27T01:45:22;0.40;99.90
4604;DHT22;2314;48.272;11.562;2024-01-27T01:47:49;0.30;99.90
4604;DHT22;2314;48.272;11.562;2024-01-27T01:50:17;0.30;99.90
4604;DHT22;2314;48.272;11.562;2024-01-27T01:52:44;0.20;99.90
4604;DHT22;2314;48.272;11.562;2024-01-27T01:55:12;0.30;99.90
4604;DHT22;2314;48.272;11.562;2024-01-27T01:57:39;0.30;99.90
4604;DHT22;2314;48.272;11.562;2024-01-27T02:00:07;0.30;99.90
4604;DHT22;2314;48.272;11.562;2024-01-27T02:02:36;0.30;99.90
4604;DHT22;2314;48.272;11.562;2024-01-27T02:05:04;0.30;99.90
4604;DHT22;2314;48.272;11.562;2024-01-27T02:07:31;0.30;99.90
4604;DHT22;2314;48.272;11.562;2024-01-27T02:09:58;0.40;99.90
4604;DHT22;2314;48.272;11.562;2024-01-27T02:12:25;0.30;99.90
4604;DHT22;2314;48.272;11.562;2024-01-27T02:14:53;0.30;99.90
4604;DHT22;2314;48.272;11.562;2024-01-27T02:17:20;0.30;99.90
4604;DHT22;2314;48.272;11.562;2024-01-27T02:19:48;0.20;99.90
4604;DHT22;2314;48.272;11.562;2024-01-27T02:22:17;0.20;99.90
4604;DHT22;2314;48.272;11.562;2024-01-27T02:24:46;0.10;99.90
4604;DHT22;2314;48.272;11.562;2024-01-27T02:27:13;0.10;99.90
4604;DHT22;2314;48.272;11.562;2024-01-27T02:29:40;0.10;99.90
4604;DHT22;2314;48.272;11.562;2024-01-27T02:32:07;0.10;99.90
4604;DHT22;2314;48.272;11.562;2024-01-27T02:34:34;0.00;99.90
4604;DHT22;2314;48.272;11.562;2024-01-27T02:37:02;0.00;99.90
4604;DHT22;2314;48.272;11.562;2024-01-27T02:39:29;0.00;99.90
4604;DHT22;2314;48.272;11.562;2024-01-27T02:41:57;0.00;99.90
4604;DHT22;2314;48.272;11.562;2024-01-27T02:44:24;0.00;99.90
4604;DHT22;2314;48.272;11.562;2024-01-27T02:46:53;-0.10;99.90
4604;DHT22;2314;48.272;11.562;2024-01-27T02:49:23;-0.10;99.90
4604;DHT22;2314;48.272;11.562;2024-01-27T02:51:50;-0.10;99.90
4604;DHT22;2314;48.272;11.562;2024-01-27T02:54:17;-0.10;99.90
4604;DHT22;2314;48.272;11.562;2024-01-27T02:56:44;-0.20;99.90
4604;DHT22;2314;48.272;11.562;2024-01-27T02:59:13;-0.20;99.90
4604;DHT22;2314;48.272;11.562;2024-01-27T03:01:40;-0.20;99.90
4604;DHT22;2314;48.272;11.562;2024-01-27T03:04:07;-0.20;99.90
4604;DHT22;2314;48.272;11.562;2024-01-27T03:06:34;-0.20;99.90
4604;DHT22;2314;48.272;11.562;2024-01-27T03:09:01;-0.20;99.90
4604;DHT22;2314;48.272;11.562;2024-01-27T03:11:28;-0.20;99.90
4604;DHT22;2314;48.272;11.562;2024-01-27T03:13:56;-0.20;99.90
4604;DHT22;2314;48.272;11.562;2024-01-27T03:16:24;-0.20;99.90
4604;DHT22;2314;48.272;11.562;2024-01-27T03:18:51;-0.20;99.90
4604;DHT22;2314;48.272;11.562;2024-01-27T03:21:18;-0.10;99.90
4604;DHT22;2314;48.272;11.562;2024-01-27T03:23:45;-0.20;99.90
4604;DHT22;2314;48.272;11.562;2024-01-27T03:26:12;-0.20;99.90
4604;DHT22;2314;48.272;11.562;2024-01-27T03:28:41;-0.20;99.90
4604;DHT22;2314;48.272;11.562;2024-01-27T03:31:09;-0.20;99.90
4604;DHT22;2314;48.272;11.562;2024-01-27T03:33:37;-0.20;99.90
4604;DHT22;2314;48.272;11.562;2024-01-27T03:36:09;-0.20;99.90
4604;DHT22;2314;48.272;11.562;2024-01-27T03:38:37;-0.20;99.90
4604;DHT22;2314;48.272;11.562;2024-01-27T03:41:04;-0.20;99.90
4604;DHT22;2314;48.272;11.562;2024-01-27T03:43:33;-0.20;99.90
4604;DHT22;2314;48.272;11.562;2024-01-27T03:46:00;-0.30;99.90
4604;DHT22;2314;48.272;11.562;2024-01-27T03:48:27;-0.30;99.90
4604;DHT22;2314;48.272;11.562;2024-01-27T03:50:55;-0.40;99.90
4604;DHT22;2314;48.272;11.562;2024-01-27T03:53:22;-0.50;99.90
4604;DHT22;2314;48.272;11.562;2024-01-27T03:55:52;-0.50;99.90
4604;DHT22;2314;48.272;11.562;2024-01-27T03:58:20;-0.50;99.90
4604;DHT22;2314;48.272;11.562;2024-01-27T04:00:47;-0.40;99.90
4604;DHT22;2314;48.272;11.562;2024-01-27T04:03:14;-0.40;99.90
4604;DHT22;2314;48.272;11.562;2024-01-27T04:05:44;-0.40;99.90
4604;DHT22;2314;48.272;11.562;2024-01-27T04:08:13;-0.50;99.90
4604;DHT22;2314;48.272;11.562;2024-01-27T04:10:40;-0.50;99.90
4604;DHT22;2314;48.272;11.562;2024-01-27T04:13:07;-0.50;99.90
4604;DHT22;2314;48.272;11.562;2024-01-27T04:15:35;-0.60;99.90
4604;DHT22;2314;48.272;11.562;2024-01-27T04:18:04;-0.60;99.90
4604;DHT22;2314;48.272;11.562;2024-01-27T04:20:33;-0.70;99.90
4604;DHT22;2314;48.272;11.562;2024-01-27T04:23:02;-0.70;99.90
4604;DHT22;2314;48.272;11.562;2024-01-27T04:25:31;-0.70;99.90
4604;DHT22;2314;48.272;11.562;2024-01-27T04:27:58;-0.80;99.90
4604;DHT22;2314;48.272;11.562;2024-01-27T04:30:25;-0.80;99.90
4604;DHT22;2314;48.272;11.562;2024-01-27T04:32:52;-0.90;99.90
4604;DHT22;2314;48.272;11.562;2024-01-27T04:35:19;-0.90;99.90
4604;DHT22;2314;48.272;11.562;2024-01-27T04:37:46;-0.90;99.90
4604;DHT22;2314;48.272;11.562;2024-01-27T04:40:13;-0.90;99.90
4604;DHT22;2314;48.272;11.562;2024-01-27T04:42:41;-0.90;99.90
4604;DHT22;2314;48.272;11.562;2024-01-27T04:45:10;-1.00;99.90
4604;DHT22;2314;48.272;11.562;2024-01-27T04:47:37;-1.00;99.90
4604;DHT22;2314;48.272;11.562;2024-01-27T04:50:04;-1.00;99.90
4604;DHT22;2314;48.272;11.562;2024-01-27T04:52:32;-1.00;99.90
4604;DHT22;2314;48.272;11.562;2024-01-27T04:55:02;-1.10;99.90
4604;DHT22;2314;48.272;11.562;2024-01-27T04:57:30;-1.10;99.90
4604;DHT22;2314;48.272;11.562;2024-01-27T04:59:59;-1.20;99.90
4604;DHT22;2314;48.272;11.562;2024-01-27T05:02:26;-1.30;99.90
4604;DHT22;2314;48.272;11.562;2024-01-27T05:04:53;-1.30;99.90
4604;DHT22;2314;48.272;11.562;2024-01-27T05:07:20;-1.30;99.90
4604;DHT22;2314;48.272;11.562;2024-01-27T05:09:47;-1.30;99.90
4604;DHT22;2314;48.272;11.562;2024-01-27T05:12:14;-1.20;99.90
4604;DHT22;2314;48.272;11.562;2024-01-27T05:14:43;-1.20;99.90
4604;DHT22;2314;48.272;11.562;2024-01-27T05:17:12;-1.20;99.90
4604;DHT22;2314;48.272;11.562;2024-01-27T05:19:39;-1.30;99.90
4604;DHT22;2314;48.272;11.562;2024-01-27T05:22:06;-1.30;99.90
4604;DHT22;2314;48.272;11.562;2024-01-27T05:24:33;-1.30;99.90
4604;DHT22;2314;48.272;11.562;2024-01-27T05:27:01;-1.30;99.90
4604;DHT22;2314;48.272;11.562;2024-01-27T05:29:28;-1.30;99.90
4604;DHT22;2314;48.272;11.562;2024-01-27T05:31:55;-1.40;99.90
4604;DHT22;2314;48.272;11.562;2024-01-27T05:34:23;-1.40;99.90
4604;DHT22;2314;48.272;11.562;2024-01-27T05:36:50;-1.40;99.90
4604;DHT22;2314;48.272;11.562;2024-01-27T05:39:17;-1.40;99.90
4604;DHT22;2314;48.272;11.562;2024-01-27T05:41:44;-1.40;99.90
4604;DHT22;2314;48.272;11.562;2024-01-27T05:44:12;-1.50;99.90
4604;DHT22;2314;48.272;11.562;2024-01-27T05:46:39;-1.40;99.90
4604;DHT22;2314;48.272;11.562;2024-01-27T05:49:06;-1.40;99.90
4604;DHT22;2314;48.272;11.562;2024-01-27T05:51:34;-1.40;99.90
4604;DHT22;2314;48.272;11.562;2024-01-27T05:54:01;-1.40;99.90
4604;DHT22;2314;48.272;11.562;2024-01-27T05:56:29;-1.30;99.90
4604;DHT22;2314;48.272;11.562;2024-01-27T05:58:56;-1.30;99.90
4604;DHT22;2314;48.272;11.562;2024-01-27T06:01:23;-1.30;99.90
4604;DHT22;2314;48.272;11.562;2024-01-27T06:03:50;-1.30;99.90
4604;DHT22;2314;48.272;11.562;2024-01-27T06:06:17;-1.20;99.90
4604;DHT22;2314;48.272;11.562;2024-01-27T06:08:45;-1.20;99.90
4604;DHT22;2314;48.272;11.562;2024-01-27T06:11:13;-1.20;99.90
4604;DHT22;2314;48.272;11.562;2024-01-27T06:13:40;-1.20;99.90
4604;DHT22;2314;48.272;11.562;2024-01-27T06:16:09;-1.20;99.90
4604;DHT22;2314;48.272;11.562;2024-01-27T06:18:36;-1.20;99.90
4604;DHT22;2314;48.272;11.562;2024-01-27T06:21:05;-1.20;99.90
4604;DHT22;2314;48.272;11.562;2024-01-27T06:23:32;-1.20;99.90
4604;DHT22;2314;48.272;11.562;2024-01-27T06:26:04;-1.20;99.90
4604;DHT22;2314;48.272;11.562;2024-01-27T06:28:31;-1.20;99.90
4604;DHT22;2314;48.272;11.562;2024-01-27T06:30:59;-1.20;99.90
4604;DHT22;2314;48.272;11.562;2024-01-27T06:33:27;-1.20;99.90
4604;DHT22;2314;48.272;11.562;2024-01-27T06:35:54;-1.20;99.90
4604;DHT22;2314;48.272;11.562;2024-01-27T06:38:21;-1.20;99.90
4604;DHT22;2314;48.272;11.562;2024-01-27T06:40:48;-1.20;99.90
4604;DHT22;2314;48.272;11.562;2024-01-27T06:43:16;-1.10;99.90
4604;DHT22;2314;48.272;11.562;2024-01-27T06:45:43;-1.20;99.90
4604;DHT22;2314;48.272;11.562;2024-01-27T06:48:10;-1.20;99.90
4604;DHT22;2314;48.272;11.562;2024-01-27T06:50:38;-1.20;99.90
4604;DHT22;2314;48.272;11.562;2024-01-27T06:53:05;-1.20;99.90
4604;DHT22;2314;48.272;11.562;2024-01-27T06:55:32;-1.20;99.90
4604;DHT22;2314;48.272;11.562;2024-01-27T06:57:59;-1.20;99.90
4604;DHT22;2314;48.272;11.562;2024-01-27T07:00:27;-1.20;99.90
4604;DHT22;2314;48.272;11.562;2024-01-27T07:02:54;-1.20;99.90
4604;DHT22;2314;48.272;11.562;2024-01-27T07:05:21;-1.20;99.90
4604;DHT22;2314;48.272;11.562;2024-01-27T07:07:48;-1.20;99.90
4604;DHT22;2314;48.272;11.562;2024-01-27T07:10:15;-1.20;99.90
4604;DHT22;2314;48.272;11.562;2024-01-27T07:12:43;-1.20;99.90
4604;DHT22;2314;48.272;11.562;2024-01-27T07:15:10;-1.20;99.90
4604;DHT22;2314;48.272;11.562;2024-01-27T07:17:38;-1.20;99.90
4604;DHT22;2314;48.272;11.562;2024-01-27T07:20:06;-1.20;99.90
4604;DHT22;2314;48.272;11.562;2024-01-27T07:22:34;-1.10;99.90
4604;DHT22;2314;48.272;11.562;2024-01-27T07:25:01;-1.10;99.90
4604;DHT22;2314;48.272;11.562;2024-01-27T07:27:29;-1.10;99.90
4604;DHT22;2314;48.272;11.562;2024-01-27T07:29:56;-1.10;99.90
4604;DHT22;2314;48.272;11.562;2024-01-27T07:32:23;-1.00;99.90
4604;DHT22;2314;48.272;11.562;2024-01-27T07:34:53;-1.10;99.90
4604;DHT22;2314;48.272;11.562;2024-01-27T07:37:20;-1.00;99.90
4604;DHT22;2314;48.272;11.562;2024-01-27T07:39:47;-1.00;99.90
4604;DHT22;2314;48.272;11.562;2024-01-27T07:42:14;-0.90;99.90
4604;DHT22;2314;48.272;11.562;2024-01-27T07:44:42;-0.90;99.90
4604;DHT22;2314;48.272;11.562;2024-01-27T07:47:09;-0.90;99.90
4604;DHT22;2314;48.272;11.562;2024-01-27T07:49:36;-0.90;99.90
4604;DHT22;2314;48.272;11.562;2024-01-27T07:52:05;-0.80;99.90
4604;DHT22;2314;48.272;11.562;2024-01-27T07:54:32;-0.80;99.90
4604;DHT22;2314;48.272;11.562;2024-01-27T07:57:04;-0.70;99.90
4604;DHT22;2314;48.272;11.562;2024-01-27T07:59:31;-0.50;99.90
4604;DHT22;2314;48.272;11.562;2024-01-27T08:01:59;-0.30;99.90
4604;DHT22;2314;48.272;11.562;2024-01-27T08:04:26;0.00;99.90
4604;DHT22;2314;48.272;11.562;2024-01-27T08:06:53;0.40;99.90
4604;DHT22;2314;48.272;11.562;2024-01-27T08:09:22;0.80;99.90
4604;DHT22;2314;48.272;11.562;2024-01-27T08:11:50;1.20;99.90
4604;DHT22;2314;48.272;11.562;2024-01-27T08:14:18;1.50;99.90
4604;DHT22;2314;48.272;11.562;2024-01-27T08:16:45;2.00;99.90
4604;DHT22;2314;48.272;11.562;2024-01-27T08:19:13;2.70;99.90
4604;DHT22;2314;48.272;11.562;2024-01-27T08:21:45;3.50;99.90
4604;DHT22;2314;48.272;11.562;2024-01-27T08:24:12;4.40;99.90
4604;DHT22;2314;48.272;11.562;2024-01-27T08:26:41;5.20;99.90
4604;DHT22;2314;48.272;11.562;2024-01-27T08:29:08;5.80;99.90
4604;DHT22;2314;48.272;11.562;2024-01-27T08:31:35;6.30;99.90
4604;DHT22;2314;48.272;11.562;2024-01-27T08:34:03;6.50;99.90
4604;DHT22;2314;48.272;11.562;2024-01-27T08:36:30;6.80;99.90
4604;DHT22;2314;48.272;11.562;2024-01-27T08:38:57;6.70;99.90
4604;DHT22;2314;48.272;11.562;2024-01-27T08:41:25;6.70;99.90
4604;DHT22;2314;48.272;11.562;2024-01-27T08:43:53;6.60;99.90
4604;DHT22;2314;48.272;11.562;2024-01-27T08:46:20;6.40;99.90
4604;DHT22;2314;48.272;11.562;2024-01-27T08:48:47;6.30;99.90
4604;DHT22;2314;48.272;11.562;2024-01-27T08:51:15;6.20;99.90
4604;DHT22;2314;48.272;11.562;2024-01-27T08:53:42;5.90;99.90
4604;DHT22;2314;48.272;11.562;2024-01-27T08:56:14;5.50;99.90
4604;DHT22;2314;48.272;11.562;2024-01-27T08:58:41;5.20;99.90
4604;DHT22;2314;48.272;11.562;2024-01-27T09:01:10;5.00;99.90
4604;DHT22;2314;48.272;11.562;2024-01-27T09:03:38;4.60;99.90
4604;DHT22;2314;48.272;11.562;2024-01-27T09:06:07;4.30;99.90
4604;DHT22;2314;48.272;11.562;2024-01-27T09:08:36;3.90;99.90
4604;DHT22;2314;48.272;11.562;2024-01-27T09:11:04;3.60;99.90
4604;DHT22;2314;48.272;11.562;2024-01-27T09:13:31;3.40;99.90
4604;DHT22;2314;48.272;11.562;2024-01-27T09:15:58;3.20;99.90
4604;DHT22;2314;48.272;11.562;2024-01-27T09:18:27;3.10;99.90
4604;DHT22;2314;48.272;11.562;2024-01-27T09:20:54;3.10;99.90
4604;DHT22;2314;48.272;11.562;2024-01-27T09:23:21;3.10;99.90
4604;DHT22;2314;48.272;11.562;2024-01-27T09:25:48;3.10;99.90
4604;DHT22;2314;48.272;11.562;2024-01-27T09:28:15;3.10;99.90
4604;DHT22;2314;48.272;11.562;2024-01-27T09:30:42;3.00;99.90
4604;DHT22;2314;48.272;11.562;2024-01-27T09:33:09;3.00;99.90
4604;DHT22;2314;48.272;11.562;2024-01-27T09:35:38;3.10;99.90
4604;DHT22;2314;48.272;11.562;2024-01-27T09:38:05;3.30;99.90
4604;DHT22;2314;48.272;11.562;2024-01-27T09:40:35;3.30;99.90
4604;DHT22;2314;48.272;11.562;2024-01-27T09:43:02;3.40;99.90
4604;DHT22;2314;48.272;11.562;2024-01-27T09:45:30;3.60;99.90
4604;DHT22;2314;48.272;11.562;2024-01-27T09:47:57;3.80;99.90
4604;DHT22;2314;48.272;11.562;2024-01-27T09:50:26;4.20;99.90
4604;DHT22;2314;48.272;11.562;2024-01-27T09:52:55;4.30;99.90
4604;DHT22;2314;48.272;11.562;2024-01-27T09:55:22;4.30;99.90
4604;DHT22;2314;48.272;11.562;2024-01-27T09:57:49;4.40;99.90
4604;DHT22;2314;48.272;11.562;2024-01-27T10:00:16;4.50;99.90
4604;DHT22;2314;48.272;11.562;2024-01-27T10:02:46;4.70;99.90
4604;DHT22;2314;48.272;11.562;2024-01-27T10:05:13;4.90;99.90
4604;DHT22;2314;48.272;11.562;2024-01-27T10:07:41;5.20;99.90
4604;DHT22;2314;48.272;11.562;2024-01-27T10:10:10;5.70;99.90
4604;DHT22;2314;48.272;11.562;2024-01-27T10:12:41;6.40;99.90
4604;DHT22;2314;48.272;11.562;2024-01-27T10:15:18;6.70;99.90
4604;DHT22;2314;48.272;11.562;2024-01-27T10:17:46;7.00;99.90
4604;DHT22;2314;48.272;11.562;2024-01-27T10:20:13;7.30;99.90
4604;DHT22;2314;48.272;11.562;2024-01-27T10:22:41;7.40;99.90
4604;DHT22;2314;48.272;11.562;2024-01-27T10:25:12;7.60;99.90
4604;DHT22;2314;48.272;11.562;2024-01-27T10:27:39;7.60;99.90
4604;DHT22;2314;48.272;11.562;2024-01-27T10:30:15;7.60;99.90
4604;DHT22;2314;48.272;11.562;2024-01-27T10:32:43;7.60;99.90
4604;DHT22;2314;48.272;11.562;2024-01-27T10:35:20;7.60;99.90
4604;DHT22;2314;48.272;11.562;2024-01-27T10:37:51;7.60;99.90
4604;DHT22;2314;48.272;11.562;2024-01-27T10:40:20;7.70;99.90
4604;DHT22;2314;48.272;11.562;2024-01-27T10:42:57;7.80;99.90
4604;DHT22;2314;48.272;11.562;2024-01-27T10:45:33;7.70;99.90
4604;DHT22;2314;48.272;11.562;2024-01-27T10:48:02;7.60;99.90
4604;DHT22;2314;48.272;11.562;2024-01-27T10:50:34;7.60;99.90
4604;DHT22;2314;48.272;11.562;2024-01-27T10:53:04;7.50;99.90
4604;DHT22;2314;48.272;11.562;2024-01-27T10:55:34;7.40;99.90
4604;DHT22;2314;48.272;11.562;2024-01-27T10:58:02;7.40;99.90
4604;DHT22;2314;48.272;11.562;2024-01-27T11:00:30;7.40;99.90
4604;DHT22;2314;48.272;11.562;2024-01-27T11:02:59;7.40;99.90
4604;DHT22;2314;48.272;11.562;2024-01-27T11:05:31;7.30;99.90
4604;DHT22;2314;48.272;11.562;2024-01-27T11:08:00;7.40;99.90
4604;DHT22;2314;48.272;11.562;2024-01-27T11:10:30;7.30;99.90
4604;DHT22;2314;48.272;11.562;2024-01-27T11:13:03;7.30;99.90
4604;DHT22;2314;48.272;11.562;2024-01-27T11:15:31;7.30;99.90
4604;DHT22;2314;48.272;11.562;2024-01-27T11:17:58;7.20;99.90
4604;DHT22;2314;48.272;11.562;2024-01-27T11:20:27;7.30;99.90
4604;DHT22;2314;48.272;11.562;2024-01-27T11:22:54;7.20;99.90
4604;DHT22;2314;48.272;11.562;2024-01-27T11:25:23;7.20;99.90
4604;DHT22;2314;48.272;11.562;2024-01-27T11:27:50;7.30;99.90
4604;DHT22;2314;48.272;11.562;2024-01-27T11:30:27;7.30;99.90
4604;DHT22;2314;48.272;11.562;2024-01-27T11:32:55;7.40;99.90
4604;DHT22;2314;48.272;11.562;2024-01-27T11:35:24;7.50;99.90
4604;DHT22;2314;48.272;11.562;2024-01-27T11:37:52;7.60;99.90
4604;DHT22;2314;48.272;11.562;2024-01-27T11:40:22;7.60;99.90
4604;DHT22;2314;48.272;11.562;2024-01-27T11:42:55;7.60;99.90
4604;DHT22;2314;48.272;11.562;2024-01-27T11:45:23;7.70;99.90
4604;DHT22;2314;48.272;11.562;2024-01-27T11:47:52;7.80;99.90
4604;DHT22;2314;48.272;11.562;2024-01-27T11:50:21;7.80;99.90
4604;DHT22;2314;48.272;11.562;2024-01-27T11:52:48;7.80;99.90
4604;DHT22;2314;48.272;11.562;2024-01-27T11:55:15;7.70;99.90
4604;DHT22;2314;48.272;11.562;2024-01-27T11:57:44;7.70;99.90
4604;DHT22;2314;48.272;11.562;2024-01-27T12:00:12;7.60;99.90
4604;DHT22;2314;48.272;11.562;2024-01-27T12:02:41;7.60;99.90
4604;DHT22;2314;48.272;11.562;2024-01-27T12:05:10;7.60;99.90
4604;DHT22;2314;48.272;11.562;2024-01-27T12:07:37;7.60;99.90
4604;DHT22;2314;48.272;11.562;2024-01-27T12:10:06;7.70;99.90
4604;DHT22;2314;48.272;11.562;2024-01-27T12:12:35;7.70;99.90
4604;DHT22;2314;48.272;11.562;2024-01-27T12:15:03;7.70;99.90
4604;DHT22;2314;48.272;11.562;2024-01-27T12:17:30;7.80;99.90
4604;DHT22;2314;48.272;11.562;2024-01-27T12:19:57;7.90;99.90
4604;DHT22;2314;48.272;11.562;2024-01-27T12:22:29;7.90;99.90
4604;DHT22;2314;48.272;11.562;2024-01-27T12:25:08;7.90;99.90
4604;DHT22;2314;48.272;11.562;2024-01-27T12:27:36;7.80;99.90
4604;DHT22;2314;48.272;11.562;2024-01-27T12:30:04;7.80;99.90
4604;DHT22;2314;48.272;11.562;2024-01-27T12:32:33;7.80;99.90
4604;DHT22;2314;48.272;11.562;2024-01-27T12:35:04;7.90;99.90
4604;DHT22;2314;48.272;11.562;2024-01-27T12:37:34;8.00;99.90
4604;DHT22;2314;48.272;11.562;2024-01-27T12:40:01;7.80;99.90
4604;DHT22;2314;48.272;11.562;2024-01-27T12:42:28;7.80;99.90
4604;DHT22;2314;48.272;11.562;2024-01-27T12:44:55;7.70;99.90
4604;DHT22;2314;48.272;11.562;2024-01-27T12:47:22;7.70;99.90
4604;DHT22;2314;48.272;11.562;2024-01-27T12:49:49;7.80;99.90
4604;DHT22;2314;48.272;11.562;2024-01-27T12:52:16;7.90;99.90
4604;DHT22;2314;48.272;11.562;2024-01-27T12:54:45;7.90;99.90
4604;DHT22;2314;48.272;11.562;2024-01-27T12:57:12;7.90;99.90
4604;DHT22;2314;48.272;11.562;2024-01-27T12:59:39;7.80;99.90
4604;DHT22;2314;48.272;11.562;2024-01-27T13:02:06;7.80;99.90
4604;DHT22;2314;48.272;11.562;2024-01-27T13:04:33;7.80;99.90
4604;DHT22;2314;48.272;11.562;2024-01-27T13:07:00;7.80;99.90
4604;DHT22;2314;48.272;11.562;2024-01-27T13:09:27;7.70;99.90
4604;DHT22;2314;48.272;11.562;2024-01-27T13:11:56;7.80;99.90
4604;DHT22;2314;48.272;11.562;2024-01-27T13:14:23;7.80;99.90
4604;DHT22;2314;48.272;11.562;2024-01-27T13:16:50;7.90;99.90
4604;DHT22;2314;48.272;11.562;2024-01-27T13:19:19;8.00;99.90
4604;DHT22;2314;48.272;11.562;2024-01-27T13:21:46;8.00;99.90
4604;DHT22;2314;48.272;11.562;2024-01-27T13:24:13;7.90;99.90
4604;DHT22;2314;48.272;11.562;2024-01-27T13:26:40;7.90;99.90
4604;DHT22;2314;48.272;11.562;2024-01-27T13:29:08;7.80;99.90
4604;DHT22;2314;48.272;11.562;2024-01-27T13:31:36;7.80;99.90
4604;DHT22;2314;48.272;11.562;2024-01-27T13:34:03;7.80;99.90
4604;DHT22;2314;48.272;11.562;2024-01-27T13:36:30;7.70;99.90
4604;DHT22;2314;48.272;11.562;2024-01-27T13:38:59;7.70;99.90
4604;DHT22;2314;48.272;11.562;2024-01-27T13:41:26;7.70;99.90
4604;DHT22;2314;48.272;11.562;2024-01-27T13:43:53;7.70;99.90
4604;DHT22;2314;48.272;11.562;2024-01-27T13:46:21;7.70;99.90
4604;DHT22;2314;48.272;11.562;2024-01-27T13:48:49;7.60;99.90
4604;DHT22;2314;48.272;11.562;2024-01-27T13:51:16;7.60;99.90
4604;DHT22;2314;48.272;11.562;2024-01-27T13:53:43;7.50;99.90
4604;DHT22;2314;48.272;11.562;2024-01-27T13:56:10;7.40;99.90
4604;DHT22;2314;48.272;11.562;2024-01-27T13:58:37;7.40;99.90
4604;DHT22;2314;48.272;11.562;2024-01-27T14:01:04;8.00;99.90
4604;DHT22;2314;48.272;11.562;2024-01-27T14:03:33;7.90;99.90
4604;DHT22;2314;48.272;11.562;2024-01-27T14:06:02;7.70;99.90
4604;DHT22;2314;48.272;11.562;2024-01-27T14:08:30;7.50;99.90
4604;DHT22;2314;48.272;11.562;2024-01-27T14:10:57;7.40;99.90
4604;DHT22;2314;48.272;11.562;2024-01-27T14:13:24;7.30;99.90
4604;DHT22;2314;48.272;11.562;2024-01-27T14:15:51;7.20;99.90
4604;DHT22;2314;48.272;11.562;2024-01-27T14:18:18;7.20;99.90
4604;DHT22;2314;48.272;11.562;2024-01-27T14:20:48;7.10;99.90
4604;DHT22;2314;48.272;11.562;2024-01-27T14:23:16;7.00;99.90
4604;DHT22;2314;48.272;11.562;2024-01-27T14:25:43;6.90;99.90
4604;DHT22;2314;48.272;11.562;2024-01-27T14:28:10;6.80;99.90
4604;DHT22;2314;48.272;11.562;2024-01-27T14:30:38;6.80;99.90
4604;DHT22;2314;48.272;11.562;2024-01-27T14:33:06;6.70;99.90
4604;DHT22;2314;48.272;11.562;2024-01-27T14:35:33;6.60;99.90
4604;DHT22;2314;48.272;11.562;2024-01-27T14:38:01;6.60;99.90
4604;DHT22;2314;48.272;11.562;2024-01-27T14:40:28;6.50;99.90
4604;DHT22;2314;48.272;11.562;2024-01-27T14:42:57;6.30;99.90
4604;DHT22;2314;48.272;11.562;2024-01-27T14:45:24;6.20;99.90
4604;DHT22;2314;48.272;11.562;2024-01-27T14:47:51;6.20;99.90
4604;DHT22;2314;48.272;11.562;2024-01-27T14:50:19;6.10;99.90
4604;DHT22;2314;48.272;11.562;2024-01-27T14:52:46;6.00;99.90
4604;DHT22;2314;48.272;11.562;2024-01-27T14:55:15;5.90;99.90
4604;DHT22;2314;48.272;11.562;2024-01-27T14:57:42;5.80;99.90
4604;DHT22;2314;48.272;11.562;2024-01-27T15:00:10;5.70;99.90
4604;DHT22;2314;48.272;11.562;2024-01-27T15:02:40;5.60;99.90
4604;DHT22;2314;48.272;11.562;2024-01-27T15:05:09;5.50;99.90
4604;DHT22;2314;48.272;11.562;2024-01-27T15:07:36;5.40;99.90
4604;DHT22;2314;48.272;11.562;2024-01-27T15:10:05;5.30;99.90
4604;DHT22;2314;48.272;11.562;2024-01-27T15:12:33;5.30;99.90
4604;DHT22;2314;48.272;11.562;2024-01-27T15:15:00;5.20;99.90
4604;DHT22;2314;48.272;11.562;2024-01-27T15:17:28;5.00;99.90
4604;DHT22;2314;48.272;11.562;2024-01-27T15:19:55;5.00;99.90
4604;DHT22;2314;48.272;11.562;2024-01-27T15:22:21;4.90;99.90
4604;DHT22;2314;48.272;11.562;2024-01-27T15:24:48;4.80;99.90
4604;DHT22;2314;48.272;11.562;2024-01-27T15:27:15;4.60;99.90
4604;DHT22;2314;48.272;11.562;2024-01-27T15:29:44;4.50;99.90
4604;DHT22;2314;48.272;11.562;2024-01-27T15:32:10;4.40;99.90
4604;DHT22;2314;48.272;11.562;2024-01-27T15:34:37;4.30;99.90
4604;DHT22;2314;48.272;11.562;2024-01-27T15:37:04;4.10;99.90
4604;DHT22;2314;48.272;11.562;2024-01-27T15:39:31;3.90;99.90
4604;DHT22;2314;48.272;11.562;2024-01-27T15:41:58;3.80;99.90
4604;DHT22;2314;48.272;11.562;2024-01-27T15:44:28;3.60;99.90
4604;DHT22;2314;48.272;11.562;2024-01-27T15:46:56;3.40;99.90
4604;DHT22;2314;48.272;11.562;2024-01-27T15:49:25;3.20;99.90
4604;DHT22;2314;48.272;11.562;2024-01-27T15:51:52;3.00;99.90
4604;DHT22;2314;48.272;11.562;2024-01-27T15:54:19;2.80;99.90
4604;DHT22;2314;48.272;11.562;2024-01-27T15:56:47;2.60;99.90
4604;DHT22;2314;48.272;11.562;2024-01-27T15:59:14;2.40;99.90
4604;DHT22;2314;48.272;11.562;2024-01-27T16:01:41;2.20;99.90